CYSP

Marathon Airport

Marathon, Ontario, Canada
METAR CYSP 211400Z 24003KT 150V310 15SM FEW140 FEW260 11/01 A3018 RMK AC1CI1 TR AC TR CI SLP233
Observed Flight Rules
May-21 @ 14:00 UTC (58 minutes ago) Visual Flight Rules
Wind Visibility Clouds
240° at 3 knots 15 miles
  • Few at 14,000' AGL
  • Few at 26,000' AGL
Temperatures Readings
Current 11°C / 52°F
Dewpoint 1°C / 34°F
Humidity 50%
Altimeter 30.18" Hg
Pressure 1023.3 hPa
Elevation 315
METAR CYSP 211400Z 24003KT 150V310 15SM FEW140 FEW260 11/01 A3018 RMK AC1CI1 TR AC TR CI SLP233
Observed Flight Rules
May-21 @ 14:00 UTC
(58 minutes ago)
VFR
Wind Visibility
240° at 3 knots 15 miles
Clouds
  • Few at 14,000' AGL
  • Few at 26,000' AGL
Temperature Dewpoint
11°C / 52°F 1°C / 34°F
Humidity Altimeter Pressure
50% 30.18" Hg 1023.3 hPa